createdAt,value
2017-12-30T00:00:45.661Z,6.62
2017-12-30T00:03:15.077Z,3.70
2017-12-30T00:05:44.014Z,4.00
2017-12-30T00:08:12.176Z,5.72
2017-12-30T00:10:40.422Z,2.58
2017-12-30T00:13:08.586Z,8.13
2017-12-30T00:15:37.746Z,4.10
2017-12-30T00:18:07.103Z,2.95
2017-12-30T00:20:37.498Z,5.60
2017-12-30T00:23:06.901Z,11.15
2017-12-30T00:25:36.693Z,5.40
2017-12-30T00:28:05.543Z,2.80
2017-12-30T00:30:34.547Z,1.10
2017-12-30T00:33:04.332Z,3.65
2017-12-30T00:35:34.097Z,2.85
2017-12-30T00:38:03.146Z,10.55
2017-12-30T00:40:32.288Z,4.37
2017-12-30T00:43:02.413Z,5.15
2017-12-30T00:45:31.896Z,7.65
2017-12-30T00:48:00.071Z,3.25
2017-12-30T00:50:28.268Z,3.08
2017-12-30T00:52:56.814Z,8.85
2017-12-30T00:55:26.710Z,7.57
2017-12-30T00:57:55.736Z,5.20
2017-12-30T01:00:24.502Z,11.10
2017-12-30T01:02:54.456Z,5.70
2017-12-30T01:05:23.394Z,1.42
2017-12-30T01:07:54.137Z,2.10
2017-12-30T01:10:22.354Z,4.57
2017-12-30T01:12:50.593Z,8.45
2017-12-30T01:15:19.478Z,2.75
2017-12-30T01:17:48.514Z,4.57
2017-12-30T01:20:17.744Z,3.47
2017-12-30T01:22:46.761Z,3.03
2017-12-30T01:25:14.923Z,13.90
2017-12-30T01:27:43.962Z,3.78
2017-12-30T01:30:13.765Z,5.18
2017-12-30T01:32:43.568Z,3.33
2017-12-30T01:35:11.759Z,4.10
2017-12-30T01:37:40.890Z,4.78
2017-12-30T01:40:09.135Z,6.15
2017-12-30T01:42:39.485Z,4.62
2017-12-30T01:45:07.648Z,8.23
2017-12-30T01:47:36.849Z,6.68
2017-12-30T01:50:05.105Z,2.90
2017-12-30T01:52:34.248Z,3.90
2017-12-30T01:55:03.050Z,5.87
2017-12-30T01:57:32.579Z,5.75
2017-12-30T02:00:00.724Z,8.77
2017-12-30T02:02:30.625Z,6.47
2017-12-30T02:04:59.858Z,5.22
2017-12-30T02:07:28.351Z,4.05
2017-12-30T02:09:57.854Z,7.82
2017-12-30T02:12:26.970Z,3.60
2017-12-30T02:14:55.154Z,7.78
2017-12-30T02:17:23.539Z,9.50
2017-12-30T02:19:52.033Z,6.72
2017-12-30T02:22:20.217Z,5.43
2017-12-30T02:24:49.420Z,3.92
2017-12-30T02:27:18.366Z,4.25
2017-12-30T02:29:48.318Z,4.65
2017-12-30T02:32:18.889Z,10.18
2017-12-30T02:34:47.049Z,3.75
2017-12-30T02:37:16.067Z,9.93
2017-12-30T02:39:45.978Z,13.77
2017-12-30T02:42:17.426Z,5.87
2017-12-30T02:44:45.836Z,1.90
2017-12-30T02:47:18.201Z,8.63
2017-12-30T02:49:47.188Z,17.42
2017-12-30T02:52:18.016Z,6.55
2017-12-30T02:54:47.201Z,4.10
2017-12-30T02:57:17.307Z,6.75
2017-12-30T02:59:46.223Z,4.25
2017-12-30T03:02:16.072Z,8.00
2017-12-30T03:04:45.892Z,11.88
2017-12-30T03:07:14.083Z,7.15
2017-12-30T03:09:42.590Z,10.65
2017-12-30T03:12:11.766Z,5.87
2017-12-30T03:14:42.185Z,7.47
2017-12-30T03:17:12.832Z,9.23
2017-12-30T03:19:41.245Z,5.10
2017-12-30T03:22:11.039Z,1.77
2017-12-30T03:24:40.040Z,5.15
2017-12-30T03:27:08.193Z,5.10
2017-12-30T03:29:37.815Z,4.62
2017-12-30T03:32:06.911Z,3.12
2017-12-30T03:34:35.121Z,3.22
2017-12-30T03:37:06.026Z,5.72
2017-12-30T03:39:35.159Z,6.45
2017-12-30T03:42:04.386Z,6.05
2017-12-30T03:44:32.958Z,5.85
2017-12-30T03:47:01.158Z,5.57
2017-12-30T03:49:32.333Z,5.72
2017-12-30T03:52:02.250Z,6.28
2017-12-30T03:54:33.186Z,6.37
2017-12-30T03:57:01.714Z,9.00
2017-12-30T03:59:35.618Z,4.03
2017-12-30T04:02:04.694Z,2.15
2017-12-30T04:04:33.142Z,7.85
2017-12-30T04:07:02.648Z,5.72
2017-12-30T04:09:32.763Z,4.00
2017-12-30T04:12:00.925Z,8.27
2017-12-30T04:14:29.575Z,5.35
2017-12-30T04:17:01.004Z,3.47
2017-12-30T04:19:31.071Z,12.45
2017-12-30T04:22:01.117Z,6.68
2017-12-30T04:24:30.137Z,7.68
2017-12-30T04:27:02.820Z,8.35
2017-12-30T04:29:31.017Z,7.22
2017-12-30T04:32:01.591Z,4.85
2017-12-30T04:34:30.326Z,7.53
2017-12-30T04:36:59.868Z,7.55
2017-12-30T04:39:29.824Z,13.27
2017-12-30T04:41:58.679Z,4.50
2017-12-30T04:44:28.501Z,3.90
2017-12-30T04:46:57.658Z,4.78
2017-12-30T04:49:29.333Z,9.65
2017-12-30T04:51:58.245Z,5.80
2017-12-30T04:54:27.360Z,4.07
2017-12-30T04:57:01.999Z,10.27
2017-12-30T04:59:34.133Z,4.35
2017-12-30T05:02:04.159Z,8.07
2017-12-30T05:04:34.261Z,11.50
2017-12-30T05:07:06.891Z,9.43
2017-12-30T05:09:35.930Z,5.12
2017-12-30T05:12:04.945Z,7.07
2017-12-30T05:14:34.010Z,2.28
2017-12-30T05:17:03.298Z,3.45
2017-12-30T05:19:32.240Z,2.85
2017-12-30T05:22:00.397Z,4.15
2017-12-30T05:24:29.378Z,5.87
2017-12-30T05:26:57.806Z,3.47
2017-12-30T05:29:26.230Z,8.43
2017-12-30T05:31:56.940Z,3.05
2017-12-30T05:34:27.035Z,9.73
2017-12-30T05:36:58.784Z,12.82
2017-12-30T05:39:34.928Z,11.75
2017-12-30T05:42:03.124Z,11.70
2017-12-30T05:44:32.071Z,6.97
2017-12-30T05:47:01.810Z,7.60
2017-12-30T05:49:29.947Z,5.07
2017-12-30T05:51:58.426Z,9.27
2017-12-30T05:54:26.577Z,7.15
2017-12-30T05:56:56.836Z,9.82
2017-12-30T05:59:25.781Z,6.90
2017-12-30T06:01:56.383Z,11.05
2017-12-30T06:04:26.532Z,5.07
2017-12-30T06:06:55.568Z,8.52
2017-12-30T06:09:24.598Z,7.15
2017-12-30T06:11:53.364Z,11.57
2017-12-30T06:14:23.127Z,9.93
2017-12-30T06:16:52.162Z,4.78
2017-12-30T06:19:22.032Z,4.03
2017-12-30T06:21:50.230Z,7.75
2017-12-30T06:24:19.045Z,5.72
2017-12-30T06:26:47.958Z,5.00
2017-12-30T06:29:17.096Z,6.85
2017-12-30T06:31:45.266Z,6.30
2017-12-30T06:34:13.471Z,17.25
2017-12-30T06:36:42.398Z,3.92
2017-12-30T06:39:11.253Z,8.90
2017-12-30T06:41:40.703Z,4.75
2017-12-30T06:44:08.865Z,8.27
2017-12-30T06:46:37.919Z,4.78
2017-12-30T06:49:07.264Z,7.45
2017-12-30T06:51:36.353Z,21.30
2017-12-30T06:54:04.505Z,7.45
2017-12-30T06:56:33.745Z,7.47
2017-12-30T06:59:01.893Z,2.78
2017-12-30T07:01:30.089Z,5.93
2017-12-30T07:04:00.880Z,4.62
2017-12-30T07:06:30.503Z,6.03
2017-12-30T07:09:00.562Z,7.22
2017-12-30T07:11:28.717Z,4.93
2017-12-30T07:13:57.588Z,6.57
2017-12-30T07:16:25.741Z,6.80
2017-12-30T07:18:54.654Z,3.35
2017-12-30T07:21:23.065Z,4.62
2017-12-30T07:23:52.568Z,3.75
2017-12-30T07:26:21.543Z,3.42
2017-12-30T07:28:49.960Z,3.42
2017-12-30T07:31:18.150Z,5.35
2017-12-30T07:33:47.019Z,3.03
2017-12-30T07:36:15.194Z,4.40
2017-12-30T07:38:43.468Z,8.02
2017-12-30T07:41:12.270Z,2.70
2017-12-30T07:43:40.421Z,4.22
2017-12-30T07:46:08.817Z,4.28
2017-12-30T07:48:39.188Z,7.28
2017-12-30T07:51:09.071Z,4.10
2017-12-30T07:53:38.762Z,5.30
2017-12-30T07:56:06.905Z,1.83
2017-12-30T07:58:35.310Z,1.25
2017-12-30T08:01:04.213Z,2.25
2017-12-30T08:12:29.974Z,2.05
2017-12-30T08:14:59.725Z,1.67
2017-12-30T08:17:29.566Z,2.83
2017-12-30T08:19:57.739Z,1.50
2017-12-30T08:22:26.527Z,1.20
2017-12-30T08:24:56.740Z,0.57
2017-12-30T08:27:25.675Z,0.65
2017-12-30T08:29:53.917Z,2.35
2017-12-30T08:32:24.300Z,1.37
2017-12-30T08:34:53.458Z,0.70
2017-12-30T08:37:21.886Z,1.00
2017-12-30T08:39:51.676Z,0.60
2017-12-30T08:42:21.279Z,0.80
2017-12-30T08:44:49.654Z,0.50
2017-12-30T08:47:20.387Z,0.80
2017-12-30T08:49:49.494Z,0.50
2017-12-30T08:52:22.371Z,0.80
2017-12-30T08:57:30.334Z,0.70
2017-12-30T08:59:59.317Z,1.25
2017-12-30T09:02:29.623Z,0.50
2017-12-30T09:04:58.723Z,0.60
2017-12-30T09:07:29.095Z,1.25
2017-12-30T09:10:01.746Z,1.42
2017-12-30T09:12:35.403Z,0.70
2017-12-30T09:15:09.401Z,2.15
2017-12-30T09:17:38.750Z,1.02
2017-12-30T09:20:13.718Z,0.60
2017-12-30T09:22:47.900Z,0.73
2017-12-30T09:25:20.634Z,0.70
2017-12-30T09:27:48.888Z,0.50
2017-12-30T09:30:17.604Z,0.82
2017-12-30T09:32:54.236Z,0.88
2017-12-30T09:35:23.156Z,1.45
2017-12-30T09:37:53.003Z,0.60
2017-12-30T09:40:22.793Z,0.77
2017-12-30T09:42:52.165Z,0.50
2017-12-30T09:45:21.798Z,0.52
2017-12-30T09:47:53.016Z,0.60
2017-12-30T09:50:21.353Z,0.60
2017-12-30T09:52:50.417Z,0.93
2017-12-30T09:55:19.261Z,0.60
2017-12-30T09:57:47.497Z,0.65
2017-12-30T10:00:17.703Z,1.05
2017-12-30T10:02:46.834Z,0.85
2017-12-30T10:05:15.242Z,2.55
2017-12-30T10:07:44.230Z,0.70
2017-12-30T10:10:14.162Z,0.65
2017-12-30T10:12:45.515Z,0.80
2017-12-30T10:15:15.412Z,1.35
2017-12-30T10:17:47.035Z,0.80
2017-12-30T10:20:15.271Z,1.15
2017-12-30T10:22:44.750Z,0.40
2017-12-30T10:25:13.749Z,1.95
2017-12-30T10:27:43.264Z,0.50
2017-12-30T10:30:12.707Z,1.30
2017-12-30T10:32:42.652Z,0.65
2017-12-30T10:35:12.559Z,0.50
2017-12-30T10:37:42.364Z,0.82
2017-12-30T10:42:50.356Z,0.70
2017-12-30T10:45:18.552Z,0.40
2017-12-30T10:47:47.654Z,0.60
2017-12-30T10:50:17.617Z,1.60
2017-12-30T10:52:45.822Z,1.45
2017-12-30T10:55:14.006Z,0.60
2017-12-30T10:57:44.297Z,0.40
2017-12-30T11:00:13.280Z,0.82
2017-12-30T11:02:42.112Z,0.85
2017-12-30T11:05:10.515Z,1.10
2017-12-30T11:07:38.791Z,1.00
2017-12-30T11:10:11.027Z,0.60
2017-12-30T11:15:14.031Z,0.50
2017-12-30T11:17:44.707Z,0.43
2017-12-30T11:20:13.354Z,0.50
2017-12-30T11:22:44.088Z,0.80
2017-12-30T11:25:13.327Z,4.30
2017-12-30T11:27:43.383Z,0.93
2017-12-30T11:30:12.944Z,0.82
2017-12-30T11:32:44.733Z,1.70
2017-12-30T11:35:14.365Z,0.70
2017-12-30T11:37:43.706Z,0.90
2017-12-30T11:40:12.673Z,1.05
2017-12-30T11:42:49.601Z,0.85
2017-12-30T11:45:22.293Z,0.60
2017-12-30T11:47:52.216Z,0.50
2017-12-30T11:50:21.231Z,1.23
2017-12-30T11:52:49.659Z,1.33
2017-12-30T11:55:18.859Z,2.80
2017-12-30T11:57:48.534Z,1.65
2017-12-30T12:00:18.114Z,1.85
2017-12-30T12:02:51.102Z,1.70
2017-12-30T12:05:25.816Z,1.08
2017-12-30T12:07:55.355Z,2.05
2017-12-30T12:10:25.382Z,1.25
2017-12-30T12:12:54.812Z,0.90
2017-12-30T12:15:24.055Z,0.60
2017-12-30T12:17:54.828Z,0.80
2017-12-30T12:20:25.443Z,2.12
2017-12-30T12:22:55.156Z,0.93
2017-12-30T12:25:25.228Z,0.62
2017-12-30T12:27:58.889Z,1.08
2017-12-30T12:30:33.858Z,0.50
2017-12-30T12:33:04.733Z,1.25
2017-12-30T12:35:36.514Z,1.77
2017-12-30T12:38:06.137Z,0.60
2017-12-30T12:40:34.369Z,0.98
2017-12-30T12:43:02.545Z,1.40
2017-12-30T12:45:36.986Z,1.58
2017-12-30T12:48:08.620Z,3.90
2017-12-30T12:50:38.278Z,2.20
2017-12-30T12:53:07.889Z,1.00
2017-12-30T12:55:36.791Z,1.17
2017-12-30T12:58:05.010Z,1.90
2017-12-30T13:00:33.241Z,1.62
2017-12-30T13:03:04.868Z,1.45
2017-12-30T13:05:34.515Z,0.98
2017-12-30T13:08:03.513Z,0.95
2017-12-30T13:10:34.200Z,0.98
2017-12-30T13:13:05.674Z,3.15
2017-12-30T13:15:34.477Z,1.23
2017-12-30T13:18:04.426Z,1.33
2017-12-30T13:20:32.655Z,2.03
2017-12-30T13:23:01.909Z,1.83
2017-12-30T13:25:31.393Z,1.60
2017-12-30T13:30:37.062Z,3.75
2017-12-30T13:33:10.816Z,2.17
2017-12-30T13:35:40.929Z,3.45
2017-12-30T13:38:10.908Z,1.70
2017-12-30T13:40:39.966Z,1.25
2017-12-30T13:43:11.134Z,1.58
2017-12-30T13:45:39.657Z,2.30
2017-12-30T13:48:09.978Z,2.30
2017-12-30T13:50:38.539Z,1.92
2017-12-30T13:53:06.943Z,1.58
2017-12-30T13:55:35.499Z,1.60
2017-12-30T13:58:04.450Z,2.95
2017-12-30T14:00:32.949Z,1.50
2017-12-30T14:03:04.537Z,1.87
2017-12-30T14:05:32.965Z,1.25
2017-12-30T14:08:01.839Z,1.77
2017-12-30T14:10:31.483Z,1.73
2017-12-30T14:13:01.560Z,1.62
2017-12-30T14:15:31.479Z,4.50
2017-12-30T14:17:59.653Z,1.52
2017-12-30T14:20:28.194Z,3.75
2017-12-30T14:22:56.454Z,3.67
2017-12-30T14:25:26.015Z,1.80
2017-12-30T14:27:54.863Z,2.05
2017-12-30T14:30:25.339Z,1.15
2017-12-30T14:32:53.588Z,0.88
2017-12-30T14:35:21.736Z,1.50
2017-12-30T14:37:51.045Z,4.00
2017-12-30T14:40:20.750Z,0.73
2017-12-30T14:42:50.529Z,1.15
2017-12-30T14:45:18.675Z,2.28
2017-12-30T14:47:51.558Z,1.33
2017-12-30T14:50:20.524Z,1.40
2017-12-30T14:52:48.766Z,3.62
2017-12-30T14:55:17.932Z,1.40
2017-12-30T14:57:47.854Z,1.10
2017-12-30T15:00:16.929Z,0.77
2017-12-30T15:02:49.136Z,4.32
2017-12-30T15:05:19.239Z,1.40
2017-12-30T15:07:48.600Z,2.92
2017-12-30T15:10:16.804Z,1.27
2017-12-30T15:12:45.132Z,0.95
2017-12-30T15:15:14.740Z,3.00
2017-12-30T15:17:43.642Z,1.50
2017-12-30T15:20:12.349Z,0.60
2017-12-30T15:22:42.326Z,0.95
2017-12-30T15:25:12.128Z,0.75
2017-12-30T15:27:41.804Z,2.87
2017-12-30T15:30:10.001Z,0.80
2017-12-30T15:32:38.942Z,1.02
2017-12-30T15:35:08.914Z,1.35
2017-12-30T15:37:38.085Z,0.93
2017-12-30T15:40:06.957Z,1.23
2017-12-30T15:42:36.514Z,1.58
2017-12-30T15:45:05.068Z,1.83
2017-12-30T15:47:33.273Z,1.92
2017-12-30T15:50:01.850Z,1.35
2017-12-30T15:52:33.026Z,1.08
2017-12-30T15:55:01.468Z,2.75
2017-12-30T15:57:29.917Z,0.73
2017-12-30T15:59:58.097Z,0.80
2017-12-30T16:02:28.424Z,0.88
2017-12-30T16:04:57.883Z,1.55
2017-12-30T16:07:27.029Z,0.98
2017-12-30T16:09:56.617Z,1.60
2017-12-30T16:12:25.263Z,1.02
2017-12-30T16:14:57.352Z,1.30
2017-12-30T16:17:27.379Z,2.45
2017-12-30T16:19:55.556Z,0.85
2017-12-30T16:22:24.530Z,1.58
2017-12-30T16:24:53.286Z,2.30
2017-12-30T16:27:22.414Z,0.90
2017-12-30T16:29:51.061Z,1.35
2017-12-30T16:32:20.592Z,1.62
2017-12-30T16:34:50.362Z,0.93
2017-12-30T16:37:18.815Z,1.48
2017-12-30T16:39:46.972Z,0.82
2017-12-30T16:42:18.086Z,0.60
2017-12-30T16:44:47.506Z,0.90
2017-12-30T16:47:18.398Z,0.60
2017-12-30T16:49:48.253Z,0.70
2017-12-30T16:52:18.324Z,1.00
2017-12-30T16:54:53.467Z,1.10
2017-12-30T16:57:23.100Z,1.65
2017-12-30T16:59:51.387Z,4.25
2017-12-30T17:02:22.925Z,1.42
2017-12-30T17:04:51.606Z,1.87
2017-12-30T17:07:21.681Z,1.40
2017-12-30T17:09:51.408Z,0.60
2017-12-30T17:12:21.099Z,2.53
2017-12-30T17:14:50.369Z,0.98
2017-12-30T17:17:21.826Z,0.70
2017-12-30T17:19:52.714Z,3.53
2017-12-30T17:22:23.641Z,1.75
2017-12-30T17:24:53.352Z,0.65
2017-12-30T17:27:22.586Z,1.02
2017-12-30T17:29:51.338Z,1.15
2017-12-30T17:32:21.500Z,1.40
2017-12-30T17:34:51.304Z,2.70
2017-12-30T17:37:20.320Z,2.30
2017-12-30T17:39:50.733Z,2.20
2017-12-30T17:42:20.788Z,1.73
2017-12-30T17:44:49.740Z,0.75
2017-12-30T17:47:20.275Z,0.77
2017-12-30T17:49:49.707Z,1.65
2017-12-30T17:52:20.438Z,0.60
2017-12-30T17:54:48.571Z,1.10
2017-12-30T17:57:18.712Z,0.82
2017-12-30T17:59:49.566Z,1.87
2017-12-30T18:04:56.285Z,0.98
2017-12-30T18:07:25.369Z,21.08
2017-12-30T18:09:54.799Z,7.50
2017-12-30T18:12:24.319Z,1.48
2017-12-30T18:14:54.648Z,1.12
2017-12-30T18:17:23.962Z,1.10
2017-12-30T18:19:53.802Z,2.13
2017-12-30T18:22:23.785Z,1.20
2017-12-30T18:24:52.437Z,1.27
2017-12-30T18:27:22.835Z,0.90
2017-12-30T18:29:52.784Z,0.93
2017-12-30T18:32:25.518Z,0.98
2017-12-30T18:34:55.830Z,0.85
2017-12-30T18:37:25.088Z,1.12
2017-12-30T18:39:53.309Z,0.40
2017-12-30T18:42:25.104Z,2.00
2017-12-30T18:44:54.487Z,1.90
2017-12-30T18:47:23.763Z,0.85
2017-12-30T18:49:54.072Z,0.60
2017-12-30T18:52:22.343Z,0.60
2017-12-30T18:54:52.280Z,0.70
2017-12-30T18:57:22.654Z,1.83
2017-12-30T18:59:52.055Z,0.95
2017-12-30T19:02:23.378Z,2.28
2017-12-30T19:04:51.615Z,0.80
2017-12-30T19:07:20.544Z,0.73
2017-12-30T19:09:48.696Z,0.80
2017-12-30T19:12:17.897Z,2.47
2017-12-30T19:14:49.851Z,0.50
2017-12-30T19:17:19.550Z,0.98
2017-12-30T19:19:50.279Z,0.90
2017-12-30T19:22:20.430Z,1.33
2017-12-30T19:24:49.359Z,0.90
2017-12-30T19:27:18.137Z,1.05
2017-12-30T19:29:46.316Z,0.73
2017-12-30T19:32:14.671Z,1.60
2017-12-30T19:34:43.587Z,1.33
2017-12-30T19:37:12.690Z,1.12
2017-12-30T19:39:41.223Z,1.02
2017-12-30T19:42:09.636Z,0.98
2017-12-30T19:44:38.242Z,0.70
2017-12-30T19:47:06.449Z,0.60
2017-12-30T19:49:34.634Z,1.35
2017-12-30T19:52:03.111Z,0.50
2017-12-30T19:54:31.348Z,1.12
2017-12-30T19:57:01.181Z,1.00
2017-12-30T19:59:30.013Z,1.02
2017-12-30T20:02:00.267Z,0.88
2017-12-30T20:04:29.009Z,1.05
2017-12-30T20:06:57.981Z,0.98
2017-12-30T20:09:26.845Z,0.80
2017-12-30T20:11:55.758Z,0.65
2017-12-30T20:14:24.788Z,1.45
2017-12-30T20:16:54.675Z,1.35
2017-12-30T20:19:24.013Z,1.15
2017-12-30T20:21:54.363Z,6.37
2017-12-30T20:24:22.991Z,2.53
2017-12-30T20:26:52.477Z,0.95
2017-12-30T20:29:21.870Z,0.90
2017-12-30T20:31:50.034Z,1.95
2017-12-30T20:34:19.097Z,1.12
2017-12-30T20:36:47.577Z,1.30
2017-12-30T20:39:16.425Z,1.42
2017-12-30T20:41:45.720Z,1.50
2017-12-30T20:44:17.448Z,1.20
2017-12-30T20:46:46.362Z,2.47
2017-12-30T20:49:16.411Z,1.95
2017-12-30T20:51:45.258Z,0.93
2017-12-30T20:54:14.287Z,1.00
2017-12-30T20:56:42.469Z,1.05
2017-12-30T20:59:11.442Z,1.08
2017-12-30T21:01:40.245Z,2.22
2017-12-30T21:04:09.861Z,3.00
2017-12-30T21:06:39.599Z,0.50
2017-12-30T21:09:08.540Z,0.95
2017-12-30T21:11:37.592Z,1.20
2017-12-30T21:14:06.436Z,0.98
2017-12-30T21:16:35.290Z,1.17
2017-12-30T21:19:03.526Z,1.42
2017-12-30T21:21:33.845Z,1.40
2017-12-30T21:24:03.354Z,1.30
2017-12-30T21:26:35.027Z,0.68
2017-12-30T21:29:05.575Z,1.02
2017-12-30T21:31:35.961Z,0.80
2017-12-30T21:34:06.124Z,0.85
2017-12-30T21:36:37.462Z,0.82
2017-12-30T21:39:05.665Z,1.45
2017-12-30T21:41:35.069Z,0.40
2017-12-30T21:44:08.230Z,1.12
2017-12-30T21:46:39.045Z,1.37
2017-12-30T21:49:08.131Z,0.77
2017-12-30T21:51:37.961Z,0.52
2017-12-30T21:54:06.895Z,0.50
2017-12-30T21:56:35.336Z,0.70
2017-12-30T21:59:10.219Z,0.65
2017-12-30T22:01:41.419Z,1.00
2017-12-30T22:04:11.695Z,0.50
2017-12-30T22:06:40.717Z,0.70
2017-12-30T22:09:09.338Z,1.05
2017-12-30T22:11:40.396Z,0.73
2017-12-30T22:14:11.007Z,1.25
2017-12-30T22:16:44.384Z,0.80
2017-12-30T22:19:15.775Z,0.60
2017-12-30T22:21:44.269Z,0.60
2017-12-30T22:24:13.181Z,0.88
2017-12-30T22:26:43.619Z,1.75
2017-12-30T22:29:11.832Z,0.40
2017-12-30T22:31:40.761Z,1.70
2017-12-30T22:34:10.042Z,0.70
2017-12-30T22:36:39.969Z,0.50
2017-12-30T22:39:08.933Z,0.60
2017-12-30T22:41:39.366Z,0.43
2017-12-30T22:44:09.164Z,0.65
2017-12-30T22:46:39.297Z,0.50
2017-12-30T22:49:08.062Z,0.50
2017-12-30T22:51:37.762Z,0.95
2017-12-30T22:54:06.873Z,0.40
2017-12-30T22:56:35.298Z,6.62
2017-12-30T22:59:03.525Z,0.50
2017-12-30T23:01:33.007Z,2.78
2017-12-30T23:04:03.251Z,0.62
2017-12-30T23:06:32.150Z,0.75
2017-12-30T23:09:01.129Z,0.55
2017-12-30T23:11:30.529Z,1.70
2017-12-30T23:13:59.091Z,1.77
2017-12-30T23:16:29.445Z,1.20
2017-12-30T23:18:58.812Z,1.92
2017-12-30T23:21:28.665Z,5.03
2017-12-30T23:23:58.279Z,1.67
2017-12-30T23:26:27.012Z,0.82
2017-12-30T23:28:56.699Z,1.27
2017-12-30T23:31:25.633Z,1.52
2017-12-30T23:33:56.633Z,2.97
2017-12-30T23:36:26.952Z,1.25
2017-12-30T23:38:56.029Z,3.05
2017-12-30T23:41:24.532Z,1.05
2017-12-30T23:43:55.017Z,1.75
2017-12-30T23:46:23.903Z,2.28
2017-12-30T23:48:52.344Z,1.50
2017-12-30T23:51:20.756Z,0.93
2017-12-30T23:53:50.673Z,2.45
2017-12-30T23:56:19.290Z,2.67
2017-12-30T23:58:47.618Z,3.62
